Portada
METAR-TAF:

METAR-TAF

Aeroports :

Aeroport Internacional de Tunis

Tunis, Tunísia

latitud: 36-50N, longitud: 010-14E, altitud: 3 m

Observació

L'informe es va fer fa 27 minuts, a les 10:00 UTC
Vent 10 kt del Oest/Nord-Oest, variant entre Oest i Nord/Nord-Oest
Temperatura 17°C
Humitat 45%
Pressió 1021 hPa
Visibilitat 10 km o més
Escasses núvols a una alçada de 2600 ft

METAR: DTTA 271000Z 30010KT 260V330 9999 FEW026 17/05 Q1021

Hora: 11:27 (10:27 UTC)

Pronòstic

L'informe es va fer fa 5 hores i 27 minuts, a les 05:00 UTC
Pronòstic vàlid del 27 a les 06 UTC al 28 a les 06 UTC
Vent 10 kt del Oest/Sud-Oest
Visibilitat 10 km o més
Núvols disperses a una alçada de 2600 ft
Evolucionant progressivament
l' 27 a les 09 UTC al 27 a les 11 UTC
Vent 12 kt del Nord-Oest
Evolucionant progressivament
l' 27 a les 18 UTC al 27 a les 20 UTC
Vent 4 kt del Sud-Oest

TAF: DTTA 270500Z 2706/2806 25010KT 9999 SCT026 BECMG 2709/2711 31012KT BECMG 2718/2720 23004KT

Observacions i pronòstics meteorològics de més de 4000 aeroports (METAR i TAF).

Les estacions disponibles són els punts grocs i vermells al mapa.

Posi el ratolí al punt desitjat per veure el nom de l'estació.

Feu clic per veure les observacions i els pronòstics meteorològics.

Per canviar el mapa: feu clic els botons verds amb una creu de color negre per apropar; al botó verd amb un guió per allunyar la imatge; o en les fletxes verdes per a mapes adjacents.


METAR-TAF: